Time;durP1;ratioP1;P1;durP2;ratioP2;P2;SDS_P1;SDS_P2;PMS_P1;PMS_P2;Temp;Humidity;BMP_temperature;BMP_pressure;BME280_temperature;BME280_humidity;BME280_pressure;Samples;Min_cycle;Max_cycle;Signal;HPM_P1;HPM_P2
2021/09/18 00:00:13;;;;;;;62.13;34.06;;;;;;;13.14;59.30;100656.38;453357;115;922538;-83
2021/09/18 00:01:16;;;;;;;59.31;32.83;;;;;;;13.16;59.45;100653.42;446973;115;923053;-82
2021/09/18 00:02:20;;;;;;;54.08;32.78;;;;;;;13.19;59.50;100655.69;458101;113;922621;-82
2021/09/18 00:03:23;;;;;;;57.06;32.84;;;;;;;13.22;59.49;100656.09;458120;113;930668;-82
2021/09/18 00:04:27;;;;;;;51.59;31.26;;;;;;;13.26;59.41;100657.28;452880;115;930565;-83
2021/09/18 00:05:31;;;;;;;52.96;31.84;;;;;;;13.29;59.25;100651.34;448766;117;922455;-82
2021/09/18 00:06:36;;;;;;;53.84;33.24;;;;;;;13.33;59.06;100659.95;452147;116;922648;-83
2021/09/18 00:07:40;;;;;;;52.16;32.46;;;;;;;13.37;58.91;100655.67;452703;116;923031;-83
2021/09/18 00:08:43;;;;;;;52.73;31.83;;;;;;;13.39;58.77;100653.55;450987;117;922645;-82
2021/09/18 00:09:46;;;;;;;48.24;32.15;;;;;;;13.41;58.67;100650.55;451120;115;922498;-82
2021/09/18 00:10:51;;;;;;;49.41;32.17;;;;;;;13.41;58.65;100656.88;451113;115;922595;-82
2021/09/18 00:11:54;;;;;;;50.08;32.21;;;;;;;13.42;58.57;100660.45;450896;115;922917;-83
2021/09/18 00:12:58;;;;;;;46.10;31.07;;;;;;;13.40;58.54;100665.34;451571;115;922558;-82
2021/09/18 00:14:01;;;;;;;48.96;30.43;;;;;;;13.37;58.56;100655.67;450188;117;930645;-82
2021/09/18 00:15:06;;;;;;;50.36;31.23;;;;;;;13.35;58.62;100664.11;458311;115;923288;-82
2021/09/18 00:16:10;;;;;;;46.14;31.59;;;;;;;13.34;58.67;100658.88;446609;117;930547;-82
2021/09/18 00:17:14;;;;;;;56.17;33.82;;;;;;;13.35;58.70;100661.38;457750;115;922512;-83
2021/09/18 00:18:17;;;;;;;57.41;33.55;;;;;;;13.36;58.68;100657.56;457262;115;922499;-82
2021/09/18 00:19:21;;;;;;;59.32;34.03;;;;;;;13.39;58.65;100655.45;446871;118;930607;-83
2021/09/18 00:20:26;;;;;;;58.07;34.47;;;;;;;13.39;58.59;100659.02;457679;115;922808;-83
2021/09/18 00:21:29;;;;;;;56.14;33.00;;;;;;;13.41;58.58;100653.29;458502;115;922442;-83
2021/09/18 00:22:33;;;;;;;52.32;32.59;;;;;;;13.43;58.54;100654.75;457997;114;930496;-83
2021/09/18 00:23:37;;;;;;;56.25;35.07;;;;;;;13.43;58.46;100656.65;459113;113;923165;-82
2021/09/18 00:24:40;;;;;;;50.79;33.64;;;;;;;13.42;58.45;100652.23;458287;115;922568;-82
2021/09/18 00:25:44;;;;;;;53.01;32.79;;;;;;;13.41;58.46;100653.29;458611;113;930655;-83
2021/09/18 00:26:47;;;;;;;63.13;34.35;;;;;;;13.40;58.50;100652.45;458139;115;923827;-82
2021/09/18 00:27:51;;;;;;;52.69;33.51;;;;;;;13.41;58.55;100647.81;458332;113;930312;-83
2021/09/18 00:28:55;;;;;;;52.12;34.23;;;;;;;13.41;58.60;100648.66;457839;115;930521;-83
2021/09/18 00:29:58;;;;;;;59.80;33.50;;;;;;;13.42;58.56;100649.49;458369;115;922725;-83
2021/09/18 00:31:01;;;;;;;65.97;35.23;;;;;;;13.42;58.61;100658.55;458549;115;923489;-83
2021/09/18 00:32:05;;;;;;;53.41;33.56;;;;;;;13.43;58.58;100656.65;458530;113;930450;-82
2021/09/18 00:33:09;;;;;;;55.44;33.26;;;;;;;13.43;58.63;100649.27;459183;113;922293;-82
2021/09/18 00:34:12;;;;;;;51.86;33.94;;;;;;;13.44;58.64;100647.37;452142;117;922547;-82
2021/09/18 00:35:16;;;;;;;57.86;34.73;;;;;;;13.45;58.68;100647.14;450894;115;922676;-83
2021/09/18 00:36:20;;;;;;;50.35;35.01;;;;;;;13.48;58.68;100643.93;458468;115;930606;-83
2021/09/18 00:37:24;;;;;;;62.96;34.98;;;;;;;13.49;58.64;100642.03;458526;113;922614;-83
2021/09/18 00:38:27;;;;;;;56.26;35.08;;;;;;;13.49;58.53;100645.61;458036;113;923291;-83
2021/09/18 00:39:31;;;;;;;66.09;35.48;;;;;;;13.47;58.44;100644.16;458165;113;922557;-82
2021/09/18 00:40:35;;;;;;;60.19;34.15;;;;;;;13.43;58.42;100648.43;456441;115;930553;-84
2021/09/18 00:41:39;;;;;;;61.07;34.42;;;;;;;13.40;58.57;100646.17;456501;115;922424;-83
2021/09/18 00:42:43;;;;;;;61.91;35.24;;;;;;;13.38;58.70;100646.39;458525;115;922289;-83
2021/09/18 00:43:52;;;;;;;53.63;34.06;;;;;;;13.38;58.74;100638.17;458852;115;922463;-83
2021/09/18 00:44:55;;;;;;;54.92;34.14;;;;;;;13.40;58.80;100640.69;458174;114;926501;-83
2021/09/18 00:45:59;;;;;;;56.83;33.65;;;;;;;13.41;58.82;100642.34;458717;115;922984;-83
2021/09/18 00:47:03;;;;;;;56.29;34.23;;;;;;;13.41;58.78;100647.81;451658;115;923489;-83
2021/09/18 00:48:06;;;;;;;56.91;34.53;;;;;;;13.41;58.77;100640.44;457557;114;930215;-83
2021/09/18 00:49:11;;;;;;;64.36;34.95;;;;;;;13.41;58.73;100645.08;457230;114;922257;-80
2021/09/18 00:50:15;;;;;;;60.13;34.72;;;;;;;13.39;58.73;100639.85;456607;114;922649;-82
2021/09/18 00:51:19;;;;;;;67.74;35.23;;;;;;;13.39;58.78;100639.02;455985;114;922594;-82
2021/09/18 00:52:23;;;;;;;54.86;33.28;;;;;;;13.38;58.80;100645.55;456022;114;930614;-82
2021/09/18 00:53:26;;;;;;;50.86;33.82;;;;;;;13.35;58.76;100646.84;456656;114;922995;-82
2021/09/18 00:54:30;;;;;;;60.21;36.07;;;;;;;13.31;58.75;100651.11;456105;114;930328;-82
2021/09/18 00:55:34;;;;;;;59.66;35.34;;;;;;;13.28;58.84;100646.11;454957;114;930443;-82
2021/09/18 00:56:38;;;;;;;56.90;33.77;;;;;;;13.26;58.95;100649.08;456234;114;922972;-83
2021/09/18 00:57:41;;;;;;;58.01;34.59;;;;;;;13.25;59.03;100647.39;458579;115;930479;-83
2021/09/18 00:58:45;;;;;;;60.41;34.16;;;;;;;13.25;59.03;100654.77;458931;115;922542;-82
2021/09/18 00:59:49;;;;;;;57.93;32.39;;;;;;;13.20;59.04;100652.73;458910;115;930486;-82
2021/09/18 01:00:54;;;;;;;51.81;32.83;;;;;;;13.17;59.10;100650.47;452673;115;922449;-82
2021/09/18 01:01:58;;;;;;;55.04;33.55;;;;;;;13.14;59.15;100650.07;458902;115;922639;-82
2021/09/18 01:03:02;;;;;;;63.33;32.43;;;;;;;13.10;59.32;100646.94;459355;113;922715;-82
2021/09/18 01:04:06;;;;;;;53.16;31.70;;;;;;;13.09;59.47;100647.16;459595;113;922628;-82
2021/09/18 01:05:10;;;;;;;56.67;31.05;;;;;;;13.07;59.62;100655.59;452015;115;922534;-82
2021/09/18 01:06:15;;;;;;;50.55;30.36;;;;;;;13.07;59.69;100654.75;453393;117;922456;-82
2021/09/18 01:07:19;;;;;;;51.40;32.31;;;;;;;13.04;59.76;100655.22;454057;115;922524;-82
2021/09/18 01:08:24;;;;;;;56.53;31.12;;;;;;;13.02;59.84;100651.87;453363;117;922747;-82
2021/09/18 01:09:30;;;;;;;49.77;31.76;;;;;;;12.99;59.98;100661.39;453658;117;922555;-82
2021/09/18 01:10:34;;;;;;;56.71;32.29;;;;;;;12.94;60.13;100653.87;453385;117;922498;-82
2021/09/18 01:11:37;;;;;;;60.57;34.19;;;;;;;12.92;60.27;100652.41;453800;117;922806;-82
2021/09/18 01:12:59;;;;;;;57.36;32.92;;;;;;;12.89;60.43;100648.25;453664;117;922709;-82
2021/09/18 01:14:03;;;;;;;59.70;33.12;;;;;;;12.88;60.52;100657.52;459449;113;923056;-82
2021/09/18 01:15:07;;;;;;;51.13;33.40;;;;;;;12.87;60.73;100652.27;458758;115;923152;-82
2021/09/18 01:16:11;;;;;;;64.36;34.97;;;;;;;12.87;60.87;100646.79;458068;115;924214;-82
2021/09/18 01:17:16;;;;;;;55.43;33.92;;;;;;;12.84;60.99;100645.36;451786;115;930234;-81
2021/09/18 01:18:20;;;;;;;65.93;34.85;;;;;;;12.83;61.10;100651.89;449963;117;930742;-81
2021/09/18 01:19:23;;;;;;;64.82;35.52;;;;;;;12.81;61.22;100653.17;451142;117;922676;-81
2021/09/18 01:20:28;;;;;;;57.85;34.39;;;;;;;12.80;61.41;100651.48;442882;118;930030;-82
2021/09/18 01:21:32;;;;;;;62.25;35.97;;;;;;;12.80;61.53;100652.33;450784;114;922244;-82
2021/09/18 01:22:36;;;;;;;52.97;33.07;;;;;;;12.81;61.62;100644.96;450047;117;922344;-82
2021/09/18 01:23:41;;;;;;;56.83;34.23;;;;;;;12.80;61.63;100646.86;456541;116;922342;-82
2021/09/18 01:24:45;;;;;;;55.72;32.42;;;;;;;12.79;61.60;100642.44;449136;118;923119;-79
2021/09/18 01:25:49;;;;;;;60.08;35.04;;;;;;;12.79;61.49;100647.92;458798;115;923102;-83
2021/09/18 01:26:53;;;;;;;54.83;31.96;;;;;;;12.81;61.47;100644.96;458376;114;922823;-82
2021/09/18 01:27:57;;;;;;;42.85;29.97;;;;;;;12.82;61.37;100655.69;458768;113;922614;-82
2021/09/18 01:29:03;;;;;;;49.11;27.66;;;;;;;12.83;61.03;100649.16;458908;115;922400;-83
2021/09/18 01:30:07;;;;;;;51.49;30.57;;;;;;;12.84;60.74;100653.57;450433;117;922540;-82
2021/09/18 01:31:14;;;;;;;44.40;27.39;;;;;;;12.86;60.54;100654.16;451627;115;922958;-82
2021/09/18 01:32:19;;;;;;;40.75;27.73;;;;;;;12.87;60.37;100652.27;454407;115;922931;-82
2021/09/18 01:33:22;;;;;;;39.02;26.53;;;;;;;12.87;60.26;100653.10;455093;115;922648;-82
2021/09/18 01:34:26;;;;;;;49.68;26.91;;;;;;;12.90;60.05;100654.56;460175;113;922695;-81
2021/09/18 01:35:32;;;;;;;40.22;26.15;;;;;;;12.90;59.80;100654.56;455730;115;930361;-82
2021/09/18 01:36:37;;;;;;;38.46;25.15;;;;;;;12.90;59.59;100657.30;454144;115;922644;-81
2021/09/18 01:37:42;;;;;;;39.83;25.69;;;;;;;12.88;59.48;100657.52;454212;116;922952;-82
2021/09/18 01:38:47;;;;;;;37.78;25.82;;;;;;;12.88;59.43;100665.72;448659;117;923154;-82
2021/09/18 01:39:51;;;;;;;42.04;24.41;;;;;;;12.88;59.36;100657.52;449400;116;923092;-82
2021/09/18 01:40:55;;;;;;;34.27;22.54;;;;;;;12.87;59.27;100655.00;454384;114;922514;-83
2021/09/18 01:41:58;;;;;;;29.99;23.68;;;;;;;12.85;59.16;100662.59;454128;116;923046;-81
2021/09/18 01:43:03;;;;;;;34.03;21.84;;;;;;;12.84;59.15;100661.78;453693;116;922576;-82
2021/09/18 01:44:06;;;;;;;39.14;22.79;;;;;;;12.86;59.13;100667.00;454176;116;930277;-81
2021/09/18 01:45:11;;;;;;;34.98;22.62;;;;;;;12.86;59.11;100661.53;462850;113;922564;-82
2021/09/18 01:46:15;;;;;;;33.06;22.72;;;;;;;12.88;59.09;100651.20;451948;115;922891;-81
2021/09/18 01:47:19;;;;;;;32.93;21.72;;;;;;;12.89;59.02;100659.19;452741;115;923738;-82
2021/09/18 01:48:22;;;;;;;31.56;21.06;;;;;;;12.90;58.90;100660.84;447871;117;922665;-82
2021/09/18 01:49:28;;;;;;;38.53;22.05;;;;;;;12.90;58.84;100669.05;454246;115;930289;-83
2021/09/18 01:50:47;;;;;;;34.84;20.64;;;;;;;12.90;58.74;100670.98;455621;115;930863;-81
2021/09/18 01:52:48;;;;;;;35.83;21.37;;;;;;;12.88;58.70;100660.25;452666;115;922919;-83
2021/09/18 01:53:04;;;;;;;26.28;19.80;;;;;;;12.88;58.79;100656.67;441109;115;923240;-81
2021/09/18 01:54:10;;;;;;;29.13;20.24;;;;;;;12.89;58.76;100655.62;455432;115;923516;-82
2021/09/18 01:55:15;;;;;;;28.50;19.06;;;;;;;12.88;58.67;100673.94;452606;115;922535;-83
2021/09/18 01:56:20;;;;;;;23.92;18.28;;;;;;;12.85;58.58;100668.06;453080;115;922884;-83
2021/09/18 01:57:23;;;;;;;31.68;20.38;;;;;;;12.81;58.57;100667.69;453395;115;923175;-82
2021/09/18 01:58:27;;;;;;;28.44;20.27;;;;;;;12.78;58.61;100670.89;453592;115;923004;-82
2021/09/18 01:59:31;;;;;;;37.00;22.18;;;;;;;12.75;58.67;100673.23;453743;115;930362;-82
2021/09/18 02:00:41;;;;;;;35.41;22.97;;;;;;;12.72;58.78;100674.53;454092;116;923136;-82
2021/09/18 02:01:45;;;;;;;42.55;25.16;;;;;;;12.69;58.94;100669.50;454615;116;930539;-82
2021/09/18 02:02:50;;;;;;;48.15;28.75;;;;;;;12.65;59.18;100668.28;448650;116;922540;-82
2021/09/18 02:03:55;;;;;;;51.27;29.08;;;;;;;12.63;59.37;100675.88;449299;116;922514;-82
2021/09/18 02:04:58;;;;;;;44.64;29.03;;;;;;;12.60;59.56;100670.86;447789;116;923144;-82
2021/09/18 02:06:02;;;;;;;51.23;27.91;;;;;;;12.60;59.78;100664.55;449942;116;922395;-82
2021/09/18 02:07:06;;;;;;;46.32;27.93;;;;;;;12.62;59.93;100673.38;449463;116;922847;-81
2021/09/18 02:08:12;;;;;;;45.40;28.79;;;;;;;12.63;60.02;100669.56;447813;116;922350;-82
2021/09/18 02:09:16;;;;;;;52.81;28.03;;;;;;;12.65;60.07;100675.66;450168;116;922210;-82
2021/09/18 02:10:23;;;;;;;49.11;28.59;;;;;;;12.64;60.10;100669.34;448716;116;922405;-83
2021/09/18 02:11:27;;;;;;;45.87;29.31;;;;;;;12.65;60.18;100672.91;448203;116;930350;-82
2021/09/18 02:12:31;;;;;;;53.14;29.65;;;;;;;12.65;60.28;100670.19;449587;116;922648;-83
2021/09/18 02:13:35;;;;;;;51.50;30.08;;;;;;;12.66;60.29;100669.12;450733;116;922421;-83
2021/09/18 02:14:39;;;;;;;57.52;27.89;;;;;;;12.67;60.29;100671.64;448984;116;922553;-83
2021/09/18 02:15:43;;;;;;;47.20;28.51;;;;;;;12.67;60.27;100668.91;448895;116;922579;-83
2021/09/18 02:16:47;;;;;;;57.52;28.28;;;;;;;12.68;60.27;100667.82;450579;116;923526;-83
2021/09/18 02:17:51;;;;;;;45.25;27.69;;;;;;;12.68;60.24;100667.02;449956;116;922673;-83
2021/09/18 02:18:55;;;;;;;43.11;28.46;;;;;;;12.69;60.25;100664.03;449089;116;922928;-83
2021/09/18 02:19:59;;;;;;;53.28;28.60;;;;;;;12.70;60.24;100667.60;445061;118;922771;-82
2021/09/18 02:21:02;;;;;;;46.96;28.75;;;;;;;12.71;60.21;100666.55;445476;115;930357;-82
2021/09/18 02:22:06;;;;;;;48.14;29.24;;;;;;;12.70;60.18;100662.97;454932;115;923025;-82
2021/09/18 02:23:12;;;;;;;51.97;28.83;;;;;;;12.70;60.23;100664.86;455808;115;930526;-81
2021/09/18 02:24:16;;;;;;;51.76;28.58;;;;;;;12.69;60.21;100666.77;454232;115;922780;-81
2021/09/18 02:25:20;;;;;;;51.44;28.29;;;;;;;12.69;60.27;100665.92;455064;115;922514;-82
2021/09/18 02:26:24;;;;;;;50.67;29.36;;;;;;;12.66;60.27;100666.39;453412;115;930540;-83
2021/09/18 02:27:28;;;;;;;49.40;28.26;;;;;;;12.64;60.15;100660.30;448448;117;923164;-82
2021/09/18 02:28:31;;;;;;;51.61;28.17;;;;;;;12.61;60.24;100666.23;449666;117;922478;-82
2021/09/18 02:29:35;;;;;;;47.42;28.65;;;;;;;12.59;60.31;100666.45;454426;115;930286;-82
2021/09/18 02:30:40;;;;;;;53.38;28.97;;;;;;;12.57;60.38;100665.02;449546;117;922619;-83
2021/09/18 02:31:43;;;;;;;47.72;28.81;;;;;;;12.55;60.45;100665.23;449757;117;923136;-84
2021/09/18 02:32:47;;;;;;;51.33;29.02;;;;;;;12.54;60.55;100660.83;436954;119;922663;-82
2021/09/18 02:33:51;;;;;;;51.02;29.06;;;;;;;12.54;60.57;100660.83;442027;116;930287;-82
2021/09/18 02:34:54;;;;;;;49.07;28.67;;;;;;;12.55;60.70;100659.77;449468;117;922466;-82
2021/09/18 02:35:58;;;;;;;43.38;28.69;;;;;;;12.56;60.75;100661.45;445744;117;930359;-83
2021/09/18 02:37:02;;;;;;;50.26;29.56;;;;;;;12.58;60.71;100658.46;457342;115;930478;-82
2021/09/18 02:38:08;;;;;;;53.79;29.82;;;;;;;12.57;60.72;100668.56;450303;116;922877;-81
2021/09/18 02:39:11;;;;;;;49.34;30.36;;;;;;;12.56;60.75;100663.34;447081;116;922540;-82
2021/09/18 02:40:18;;;;;;;44.28;28.63;;;;;;;12.56;60.78;100666.08;448633;116;923548;-82
2021/09/18 02:41:21;;;;;;;50.29;30.37;;;;;;;12.54;60.81;100661.66;448022;116;923052;-83
2021/09/18 02:42:25;;;;;;;46.22;29.23;;;;;;;12.54;60.77;100667.13;449178;116;923147;-82
2021/09/18 02:43:28;;;;;;;49.52;31.54;;;;;;;12.52;60.74;100658.30;447750;116;930314;-81
2021/09/18 02:44:32;;;;;;;49.51;30.05;;;;;;;12.50;60.85;100660.45;448506;116;922561;-82
2021/09/18 02:45:36;;;;;;;49.91;30.57;;;;;;;12.50;60.92;100659.61;448383;116;930302;-82
2021/09/18 02:46:40;;;;;;;47.12;29.29;;;;;;;12.49;60.98;100658.77;448619;116;930450;-83
2021/09/18 02:47:44;;;;;;;51.93;29.19;;;;;;;12.51;61.03;100658.55;448456;114;930378;-82
2021/09/18 02:48:48;;;;;;;40.88;27.87;;;;;;;12.51;60.97;100666.77;455253;114;922919;-82
2021/09/18 02:49:55;;;;;;;49.31;28.37;;;;;;;12.49;60.96;100664.23;454420;114;923031;-82
2021/09/18 02:50:59;;;;;;;46.94;28.49;;;;;;;12.45;60.90;100663.03;454499;114;922439;-83
2021/09/18 02:52:03;;;;;;;52.74;29.99;;;;;;;12.41;60.95;100661.78;453562;114;922652;-82
2021/09/18 02:53:07;;;;;;;44.68;27.53;;;;;;;12.40;61.07;100667.50;455460;114;922880;-82
2021/09/18 02:54:11;;;;;;;41.69;27.57;;;;;;;12.40;61.13;100664.77;456567;114;921996;-82
2021/09/18 02:55:15;;;;;;;52.15;27.48;;;;;;;12.39;61.17;100663.08;453989;114;930176;-82
2021/09/18 02:56:20;;;;;;;46.46;28.15;;;;;;;12.40;61.32;100664.77;456092;114;922245;-82
2021/09/18 02:57:23;;;;;;;49.93;28.06;;;;;;;12.43;61.36;100661.56;454924;114;922455;-82
2021/09/18 02:58:27;;;;;;;43.34;27.75;;;;;;;12.45;61.38;100667.66;457031;114;930353;-83
2021/09/18 02:59:30;;;;;;;45.54;26.96;;;;;;;12.46;61.41;100658.37;455253;114;923007;-82
2021/09/18 03:00:36;;;;;;;44.56;26.07;;;;;;;12.48;61.28;100667.19;453527;114;923215;-82
2021/09/18 03:01:40;;;;;;;37.01;25.61;;;;;;;12.48;61.19;100658.98;458294;115;922388;-82
2021/09/18 03:02:45;;;;;;;49.58;26.38;;;;;;;12.46;61.09;100661.94;457514;114;923712;-82
2021/09/18 03:03:49;;;;;;;41.10;26.78;;;;;;;12.43;61.05;100658.83;457263;115;922424;-82
2021/09/18 03:04:53;;;;;;;44.99;25.41;;;;;;;12.39;61.07;100665.81;457849;114;923260;-82
2021/09/18 03:05:57;;;;;;;39.04;25.69;;;;;;;12.36;61.16;100663.52;449375;116;930456;-82
2021/09/18 03:07:01;;;;;;;54.88;28.03;;;;;;;12.36;61.28;100663.52;456220;114;930499;-82
2021/09/18 03:08:04;;;;;;;45.00;25.84;;;;;;;12.37;61.34;100659.73;455418;114;930800;-82
2021/09/18 03:09:08;;;;;;;52.34;26.79;;;;;;;12.38;61.43;100662.25;457171;115;922969;-82
2021/09/18 03:10:13;;;;;;;46.31;27.50;;;;;;;12.41;61.45;100666.41;458394;113;922621;-82
2021/09/18 03:11:16;;;;;;;46.65;26.52;;;;;;;12.42;61.36;100670.83;449930;116;922383;-82
2021/09/18 03:12:20;;;;;;;48.43;27.61;;;;;;;12.40;61.25;100668.34;456258;114;923054;-81
2021/09/18 03:13:24;;;;;;;48.27;26.90;;;;;;;12.37;61.28;100666.03;454922;114;922928;-81
2021/09/18 03:14:28;;;;;;;52.54;27.17;;;;;;;12.36;61.31;100671.72;455360;114;922976;-81
2021/09/18 03:15:32;;;;;;;47.81;26.62;;;;;;;12.32;61.37;100674.08;455900;114;922410;-83
2021/09/18 03:16:36;;;;;;;47.12;26.59;;;;;;;12.32;61.47;100681.44;455799;114;922622;-82
2021/09/18 03:17:40;;;;;;;54.47;28.05;;;;;;;12.32;61.60;100674.08;455091;114;922543;-82
2021/09/18 03:18:44;;;;;;;49.94;27.52;;;;;;;12.33;61.62;100673.02;455736;114;922486;-83
2021/09/18 03:19:47;;;;;;;50.31;27.13;;;;;;;12.36;61.69;100677.19;455574;114;922800;-82
2021/09/18 03:20:52;;;;;;;46.65;25.83;;;;;;;12.36;61.68;100678.02;446490;116;930626;-82
2021/09/18 03:21:55;;;;;;;54.61;25.39;;;;;;;12.39;61.63;100674.02;462967;111;930348;-83
2021/09/18 03:22:59;;;;;;;52.85;25.63;;;;;;;12.40;61.63;100672.97;472506;111;930470;-82
2021/09/18 03:24:03;;;;;;;61.63;27.27;;;;;;;12.41;61.63;100677.34;471346;111;923044;-83
2021/09/18 03:25:08;;;;;;;58.92;25.97;;;;;;;12.43;61.70;100672.50;469160;111;930481;-82
2021/09/18 03:26:12;;;;;;;55.32;25.77;;;;;;;12.45;61.68;100679.44;472211;111;922939;-83
2021/09/18 03:27:16;;;;;;;55.19;25.71;;;;;;;12.46;61.60;100677.51;469332;111;923104;-82
2021/09/18 03:28:19;;;;;;;78.85;27.12;;;;;;;12.48;61.62;100672.66;469234;111;922864;-82
2021/09/18 03:29:24;;;;;;;97.42;29.09;;;;;;;12.50;61.62;100676.02;470611;111;922956;-82
2021/09/18 03:30:29;;;;;;;99.85;29.47;;;;;;;12.51;61.47;100674.97;468666;111;922822;-82
2021/09/18 03:31:33;;;;;;;128.72;32.42;;;;;;;12.50;61.39;100678.75;470426;111;922482;-80
2021/09/18 03:32:36;;;;;;;90.61;27.55;;;;;;;12.47;61.33;100682.77;472417;111;922756;-81
2021/09/18 03:33:40;;;;;;;90.63;28.10;;;;;;;12.44;61.30;100676.91;470071;111;930639;-82
2021/09/18 03:34:44;;;;;;;78.78;26.79;;;;;;;12.40;61.22;100672.97;470544;111;922587;-82
2021/09/18 03:35:49;;;;;;;55.77;24.83;;;;;;;12.35;61.27;100676.34;471063;111;922595;-82
2021/09/18 03:36:53;;;;;;;55.37;25.67;;;;;;;12.31;61.30;100671.55;469633;111;930348;-82
2021/09/18 03:37:57;;;;;;;52.68;25.49;;;;;;;12.27;61.32;100675.80;471391;111;923122;-82
2021/09/18 03:39:01;;;;;;;49.75;24.22;;;;;;;12.23;61.38;100680.05;471031;111;922614;-82
2021/09/18 03:40:08;;;;;;;53.38;24.64;;;;;;;12.22;61.42;100683.84;469839;111;922560;-82
2021/09/18 03:41:12;;;;;;;43.75;24.20;;;;;;;12.22;61.56;100686.58;470514;111;922660;-82
2021/09/18 03:42:15;;;;;;;51.11;24.32;;;;;;;12.22;61.64;100683.84;469574;111;922723;-81
2021/09/18 03:43:19;;;;;;;45.03;23.72;;;;;;;12.24;61.73;100681.73;472332;111;929883;-84
2021/09/18 03:44:23;;;;;;;50.67;23.39;;;;;;;12.26;61.65;100691.37;474816;111;922176;-84
2021/09/18 03:45:26;;;;;;;41.01;22.87;;;;;;;12.27;61.65;100692.21;471470;111;930042;-82
2021/09/18 03:46:32;;;;;;;37.50;22.67;;;;;;;12.28;61.69;100682.95;460757;113;923109;-82
2021/09/18 03:47:35;;;;;;;45.05;23.91;;;;;;;12.31;61.75;100687.96;460157;111;922557;-82
2021/09/18 03:48:39;;;;;;;51.74;24.47;;;;;;;12.34;61.74;100688.37;471601;111;922572;-83
2021/09/18 03:49:43;;;;;;;41.47;23.36;;;;;;;12.36;61.75;100688.96;467990;111;930323;-82
2021/09/18 03:50:47;;;;;;;46.71;23.97;;;;;;;12.39;61.69;100694.00;469859;111;930513;-82
2021/09/18 03:51:50;;;;;;;52.95;23.99;;;;;;;12.43;61.72;100686.17;467726;111;922427;-81
2021/09/18 03:52:54;;;;;;;59.55;24.63;;;;;;;12.45;61.68;100693.11;467877;111;930467;-82
2021/09/18 03:53:58;;;;;;;44.89;23.34;;;;;;;12.46;61.59;100686.55;468563;111;930655;-81
2021/09/18 03:55:02;;;;;;;48.88;24.31;;;;;;;12.47;61.55;100690.97;469544;111;930050;-81
2021/09/18 03:56:06;;;;;;;50.41;23.82;;;;;;;12.48;61.56;100691.80;468617;111;922493;-81
2021/09/18 03:57:10;;;;;;;48.44;24.84;;;;;;;12.48;61.52;100689.91;469487;111;923020;-81
2021/09/18 03:58:14;;;;;;;60.61;23.85;;;;;;;12.49;61.59;100693.48;470013;111;922616;-82
2021/09/18 03:59:17;;;;;;;65.51;25.52;;;;;;;12.50;61.65;100687.80;468187;112;930476;-81
2021/09/18 04:00:21;;;;;;;53.34;24.61;;;;;;;12.54;61.67;100689.02;466793;111;930516;-82
2021/09/18 04:01:25;;;;;;;56.14;25.45;;;;;;;12.57;61.64;100686.91;469252;111;923005;-83
2021/09/18 04:02:29;;;;;;;58.78;24.75;;;;;;;12.60;61.59;100689.17;468834;111;922491;-82
2021/09/18 04:03:33;;;;;;;66.84;24.11;;;;;;;12.63;61.57;100696.91;470084;111;922961;-82
2021/09/18 04:04:37;;;;;;;73.66;24.32;;;;;;;12.65;61.51;100694.80;472861;111;922468;-82
2021/09/18 04:05:41;;;;;;;53.60;23.96;;;;;;;12.67;61.44;100690.80;467113;111;922554;-82
2021/09/18 04:06:48;;;;;;;48.96;23.32;;;;;;;12.68;61.38;100688.90;469457;111;922520;-81
2021/09/18 04:07:51;;;;;;;53.99;22.80;;;;;;;12.69;61.37;100696.86;469503;111;922482;-81
2021/09/18 04:08:55;;;;;;;44.66;22.28;;;;;;;12.72;61.34;100696.42;463932;111;922952;-81
2021/09/18 04:09:58;;;;;;;51.81;22.81;;;;;;;12.75;61.26;100695.95;467344;111;930459;-81
2021/09/18 04:11:02;;;;;;;53.09;22.95;;;;;;;12.77;61.16;100699.31;468344;111;930272;-81
2021/09/18 04:12:06;;;;;;;46.58;22.09;;;;;;;12.79;61.02;100694.43;468952;111;930430;-81
2021/09/18 04:13:10;;;;;;;50.36;23.66;;;;;;;12.81;60.96;100692.31;469589;111;923020;-81
2021/09/18 04:14:13;;;;;;;48.08;21.70;;;;;;;12.82;60.88;100695.89;467504;111;922428;-81
2021/09/18 04:15:17;;;;;;;42.10;21.59;;;;;;;12.83;60.81;100690.20;470975;111;922516;-82
2021/09/18 04:16:22;;;;;;;43.23;22.23;;;;;;;12.84;60.72;100693.78;468374;111;922573;-79
2021/09/18 04:17:26;;;;;;;45.24;21.77;;;;;;;12.83;60.69;100692.94;467552;113;923329;-81
2021/09/18 04:18:30;;;;;;;43.31;21.29;;;;;;;12.82;60.70;100691.26;466652;111;922575;-78
2021/09/18 04:19:34;;;;;;;44.31;22.96;;;;;;;12.81;60.73;100697.79;466606;111;930670;-81
2021/09/18 04:20:38;;;;;;;51.46;22.14;;;;;;;12.79;60.73;100699.91;456161;114;930447;-81
2021/09/18 04:21:42;;;;;;;44.17;22.85;;;;;;;12.78;60.73;100694.68;453144;117;923168;-79
2021/09/18 04:22:45;;;;;;;55.14;22.86;;;;;;;12.77;60.79;100698.47;453127;115;923226;-81
2021/09/18 04:23:49;;;;;;;48.28;20.51;;;;;;;12.77;60.88;100701.21;453262;115;922602;-80
2021/09/18 04:24:52;;;;;;;48.94;22.94;;;;;;;12.77;60.92;100699.31;453192;117;930399;-79
2021/09/18 04:25:57;;;;;;;45.64;22.41;;;;;;;12.78;60.94;100697.41;453146;117;922653;-81
2021/09/18 04:27:04;;;;;;;38.01;21.58;;;;;;;12.78;60.99;100700.16;452861;116;931056;-80
2021/09/18 04:28:08;;;;;;;41.55;21.57;;;;;;;12.78;61.03;100703.73;453607;116;922984;-81
2021/09/18 04:29:11;;;;;;;48.34;24.58;;;;;;;12.80;61.11;100701.58;459062;114;922501;-81
2021/09/18 04:30:16;;;;;;;46.31;23.57;;;;;;;12.81;61.10;100697.79;453040;116;923020;-82
2021/09/18 04:31:19;;;;;;;57.48;24.75;;;;;;;12.83;61.14;100698.41;459203;114;930249;-82
2021/09/18 04:32:23;;;;;;;56.98;23.62;;;;;;;12.87;61.12;100696.05;459295;114;931184;-81
2021/09/18 04:33:27;;;;;;;41.09;21.99;;;;;;;12.89;61.13;100699.41;452621;115;930462;-81
2021/09/18 04:34:31;;;;;;;45.26;22.05;;;;;;;12.91;61.14;100702.73;459523;114;930617;-82
2021/09/18 04:35:36;;;;;;;47.54;21.93;;;;;;;12.91;61.11;100695.36;460044;114;922420;-81
2021/09/18 04:36:43;;;;;;;39.31;21.17;;;;;;;12.93;61.10;100701.45;458334;114;922878;-82
2021/09/18 04:37:47;;;;;;;41.10;21.16;;;;;;;12.95;61.03;100712.19;449258;115;923400;-81
2021/09/18 04:38:50;;;;;;;29.68;20.64;;;;;;;12.96;61.05;100706.45;449871;118;922708;-81
2021/09/18 04:39:54;;;;;;;39.37;20.97;;;;;;;12.98;61.04;100703.50;448715;116;930614;-81
2021/09/18 04:40:59;;;;;;;34.71;18.12;;;;;;;13.00;61.04;100703.28;468341;111;930699;-81
2021/09/18 04:42:03;;;;;;;38.79;20.27;;;;;;;13.02;60.74;100704.71;470987;111;923078;-81
2021/09/18 04:43:07;;;;;;;38.93;19.24;;;;;;;13.05;60.63;100706.17;469124;111;930630;-82
2021/09/18 04:44:11;;;;;;;34.63;18.52;;;;;;;13.06;60.33;100696.90;467644;111;922853;-81
2021/09/18 04:45:15;;;;;;;30.62;18.21;;;;;;;13.07;60.02;100696.65;461376;114;922515;-82
2021/09/18 04:46:20;;;;;;;28.69;17.22;;;;;;;13.10;59.73;100700.84;459328;111;923199;-81
2021/09/18 04:47:24;;;;;;;32.72;17.24;;;;;;;13.11;59.42;100703.36;470844;111;930715;-81
2021/09/18 04:48:28;;;;;;;37.57;17.63;;;;;;;13.14;59.30;100699.34;472329;111;930793;-81